Time;durP1;ratioP1;P1;durP2;ratioP2;P2;SDS_P1;SDS_P2;PMS_P1;PMS_P2;Temp;Humidity;BMP_temperature;BMP_pressure;BME280_temperature;BME280_humidity;BME280_pressure;Samples;Min_cycle;Max_cycle;Signal;HPM_P1;HPM_P2
2022/08/23 00:00:41;;;;;;;4.60;1.93;;;23.00;57.60;;;;;;4994602;28;20693;-72
2022/08/23 00:03:07;;;;;;;4.40;2.03;;;23.00;58.00;;;;;;5003209;28;20573;-73
2022/08/23 00:05:33;;;;;;;4.20;2.30;;;22.90;58.00;;;;;;4995481;28;20617;-73
2022/08/23 00:07:58;;;;;;;3.10;1.60;;;22.90;58.40;;;;;;4995346;28;20569;-73
2022/08/23 00:10:24;;;;;;;3.90;2.00;;;22.80;58.60;;;;;;4994729;28;21100;-73
2022/08/23 00:12:50;;;;;;;4.83;2.10;;;22.80;59.00;;;;;;4994992;28;20707;-73
2022/08/23 00:15:19;;;;;;;4.10;1.90;;;22.80;59.30;;;;;;4994903;28;20568;-73
2022/08/23 00:17:45;;;;;;;7.87;2.47;;;22.70;59.60;;;;;;4995091;28;20625;-73
2022/08/23 00:20:13;;;;;;;4.03;2.27;;;22.70;59.80;;;;;;4994772;28;20690;-73
2022/08/23 00:22:40;;;;;;;3.70;2.20;;;22.60;60.20;;;;;;4994890;28;20601;-72
2022/08/23 00:25:08;;;;;;;4.53;1.97;;;22.60;60.60;;;;;;4994972;28;20578;-73
2022/08/23 00:27:34;;;;;;;4.77;2.47;;;22.50;61.10;;;;;;4994826;28;20558;-73
2022/08/23 00:30:00;;;;;;;3.20;2.17;;;22.50;61.70;;;;;;4994482;28;20598;-73
2022/08/23 00:32:30;;;;;;;6.40;1.90;;;22.40;62.10;;;;;;4977269;28;20669;-73
2022/08/23 00:34:58;;;;;;;4.70;2.33;;;22.40;62.80;;;;;;4995168;28;20574;-73
2022/08/23 00:37:24;;;;;;;5.10;1.97;;;22.40;63.30;;;;;;4994778;28;20928;-72
2022/08/23 00:39:50;;;;;;;6.10;2.90;;;22.30;63.70;;;;;;4994396;28;20629;-73
2022/08/23 00:48:28;;;;;;;4.27;2.00;;;22.20;65.80;;;;;;4977437;28;20601;-73
2022/08/23 00:51:09;;;;;;;5.33;2.60;;;22.20;65.60;;;;;;4960179;28;20614;-73
2022/08/23 00:53:41;;;;;;;5.90;2.77;;;22.20;67.20;;;;;;4977386;28;21150;-73
2022/08/23 00:56:11;;;;;;;3.33;2.57;;;22.10;67.10;;;;;;4994351;28;20601;-73
2022/08/23 00:58:37;;;;;;;3.73;2.67;;;22.10;67.60;;;;;;4994146;28;20617;-73
2022/08/23 01:01:05;;;;;;;4.63;2.60;;;22.10;68.20;;;;;;4976608;28;20606;-73
2022/08/23 01:03:34;;;;;;;5.27;2.80;;;22.10;69.00;;;;;;4994440;28;20622;-74
2022/08/23 01:06:03;;;;;;;4.27;3.33;;;22.00;69.60;;;;;;4994336;28;20593;-73
2022/08/23 01:08:30;;;;;;;4.43;2.73;;;22.00;70.40;;;;;;4976894;28;20574;-73
2022/08/23 01:11:03;;;;;;;3.97;3.20;;;22.00;70.70;;;;;;4976272;28;21073;-73
2022/08/23 01:14:02;;;;;;;3.57;2.90;;;22.00;71.70;;;;;;4976807;28;20670;-73
2022/08/23 01:16:36;;;;;;;3.70;2.80;;;21.90;72.40;;;;;;4973771;28;20984;-74
2022/08/23 01:19:07;;;;;;;3.43;2.37;;;21.90;73.30;;;;;;4960399;28;20641;-73
2022/08/23 01:21:44;;;;;;;5.03;2.73;;;21.90;73.30;;;;;;4960240;28;20574;-74
2022/08/23 01:24:11;;;;;;;4.90;2.13;;;21.90;74.40;;;;;;4976497;28;20609;-73
2022/08/23 01:26:37;;;;;;;3.83;2.47;;;21.90;74.40;;;;;;4976553;28;20618;-73
2022/08/23 01:29:05;;;;;;;4.27;3.60;;;21.90;75.00;;;;;;4976416;28;20891;-73
2022/08/23 01:31:32;;;;;;;4.20;2.70;;;21.90;75.70;;;;;;4976008;28;20609;-73
2022/08/23 01:34:07;;;;;;;4.77;3.43;;;21.90;76.10;;;;;;4976227;28;20628;-73
2022/08/23 01:36:34;;;;;;;6.63;3.10;;;21.90;77.10;;;;;;4976390;28;20574;-73
2022/08/23 01:39:02;;;;;;;4.50;3.30;;;21.90;77.10;;;;;;4976239;28;20772;-74
2022/08/23 01:41:30;;;;;;;4.00;3.30;;;21.90;77.80;;;;;;4959469;28;21172;-74
2022/08/23 01:43:56;;;;;;;4.53;2.90;;;21.90;78.30;;;;;;4976236;28;20589;-74
2022/08/23 01:46:25;;;;;;;4.13;2.60;;;21.90;78.80;;;;;;4976102;28;20660;-74
2022/08/23 01:48:54;;;;;;;3.53;2.40;;;21.90;79.30;;;;;;4976092;28;20589;-74
2022/08/23 01:51:21;;;;;;;4.33;3.17;;;21.90;79.70;;;;;;4975768;28;20665;-74
2022/08/23 01:53:47;;;;;;;5.93;2.83;;;21.90;80.20;;;;;;4993307;28;20577;-74
2022/08/23 01:56:18;;;;;;;5.63;3.17;;;21.90;80.70;;;;;;4976165;28;20581;-73
2022/08/23 01:58:44;;;;;;;5.67;3.27;;;21.90;81.10;;;;;;4975984;28;20622;-74
2022/08/23 02:01:11;;;;;;;5.33;2.97;;;21.90;81.60;;;;;;4959457;28;20628;-74
2022/08/23 02:03:37;;;;;;;5.20;3.37;;;21.90;82.30;;;;;;4959211;28;20574;-74
2022/08/23 02:06:04;;;;;;;4.97;3.50;;;21.90;83.60;;;;;;4975881;28;20669;-74
2022/08/23 02:11:20;;;;;;;4.03;2.60;;;21.80;85.20;;;;;;4974797;28;20633;-74
2022/08/23 02:13:48;;;;;;;6.10;2.50;;;21.80;85.30;;;;;;4975906;28;20636;-74
2022/08/23 02:16:23;;;;;;;4.40;2.43;;;21.80;85.80;;;;;;4975661;28;20581;-74
2022/08/23 02:18:49;;;;;;;5.57;2.60;;;21.70;86.00;;;;;;4975286;28;21043;-73
2022/08/23 02:21:15;;;;;;;3.47;2.70;;;21.70;85.70;;;;;;4958710;28;20696;-74
2022/08/23 02:23:41;;;;;;;4.27;2.07;;;21.70;86.40;;;;;;4975512;28;20566;-74
2022/08/23 02:26:07;;;;;;;4.40;2.57;;;21.70;86.60;;;;;;4975469;28;20931;-74
2022/08/23 02:28:33;;;;;;;5.57;3.00;;;21.70;86.90;;;;;;4976336;28;20662;-73
2022/08/23 02:30:59;;;;;;;4.53;2.97;;;21.60;87.50;;;;;;4975349;28;21032;-75
2022/08/23 02:33:25;;;;;;;4.83;2.23;;;21.60;87.40;;;;;;4975657;28;20938;-75
2022/08/23 02:35:51;;;;;;;6.67;2.40;;;21.60;87.80;;;;;;4959809;28;20588;-74
2022/08/23 02:38:17;;;;;;;4.57;2.50;;;21.60;87.90;;;;;;4992721;28;20198;-74
2022/08/23 02:40:47;;;;;;;6.67;2.50;;;21.60;88.40;;;;;;4973862;28;20542;-74
2022/08/23 02:43:13;;;;;;;6.17;3.27;;;21.50;88.50;;;;;;4974426;28;20586;-74
2022/08/23 02:45:40;;;;;;;9.33;4.00;;;21.50;88.60;;;;;;4974453;28;20693;-73
2022/08/23 02:48:07;;;;;;;4.20;2.60;;;21.50;89.30;;;;;;4977703;28;20593;-74
2022/08/23 02:50:41;;;;;;;4.20;2.03;;;21.50;89.70;;;;;;4973559;28;21220;-74
2022/08/23 02:53:08;;;;;;;6.90;3.00;;;21.40;89.40;;;;;;4977299;28;20589;-74
2022/08/23 02:55:34;;;;;;;4.37;2.50;;;21.40;89.60;;;;;;4979620;28;20586;-74
2022/08/23 02:58:00;;;;;;;5.30;2.70;;;21.30;90.00;;;;;;4975079;28;20574;-74
2022/08/23 03:00:27;;;;;;;5.07;2.80;;;21.40;90.00;;;;;;4991989;28;20629;-74
2022/08/23 03:02:53;;;;;;;5.10;2.60;;;21.30;90.20;;;;;;4974976;28;20958;-74
2022/08/23 03:05:19;;;;;;;3.67;2.70;;;21.30;90.20;;;;;;4959038;28;20917;-74
2022/08/23 03:07:44;;;;;;;7.13;2.70;;;21.30;90.40;;;;;;4974797;28;20960;-74
2022/08/23 03:10:11;;;;;;;6.30;2.60;;;21.30;90.50;;;;;;4974235;28;20629;-74
2022/08/23 03:12:40;;;;;;;3.90;2.57;;;21.20;90.60;;;;;;4989608;23;20681;-81
2022/08/23 03:15:07;;;;;;;4.00;2.30;;;21.20;90.70;;;;;;4974511;28;20594;-81
2022/08/23 03:17:33;;;;;;;4.50;2.20;;;21.20;90.80;;;;;;4974796;28;20582;-81
2022/08/23 03:20:00;;;;;;;5.30;2.80;;;21.20;90.90;;;;;;4973550;28;20732;-81
2022/08/23 03:22:26;;;;;;;6.77;2.70;;;21.20;91.00;;;;;;4966202;28;20625;-81
2022/08/23 03:24:53;;;;;;;4.43;2.50;;;21.20;91.10;;;;;;4937966;28;20587;-81
2022/08/23 03:27:23;;;;;;;4.00;2.57;;;21.20;91.30;;;;;;4939431;28;20603;-81
2022/08/23 03:29:49;;;;;;;4.70;2.63;;;21.20;91.60;;;;;;4955053;28;20614;-80
2022/08/23 03:32:16;;;;;;;4.23;2.80;;;21.10;91.50;;;;;;4956142;28;20203;-80
2022/08/23 03:34:43;;;;;;;3.23;2.90;;;21.10;91.60;;;;;;4939473;28;20715;-81
2022/08/23 03:37:09;;;;;;;4.40;2.20;;;21.10;91.70;;;;;;4939504;28;20594;-80
2022/08/23 03:39:36;;;;;;;4.37;2.33;;;21.10;91.80;;;;;;4955033;28;20662;-80
2022/08/23 03:42:02;;;;;;;5.40;2.50;;;21.10;91.90;;;;;;4954771;28;20953;-80
2022/08/23 03:44:31;;;;;;;6.80;2.80;;;21.10;92.20;;;;;;4955095;28;20575;-80
2022/08/23 03:46:57;;;;;;;4.97;2.70;;;21.00;92.40;;;;;;4955188;28;20675;-81
2022/08/23 03:49:25;;;;;;;4.63;3.20;;;21.10;92.60;;;;;;4954780;28;20621;-81
2022/08/23 03:51:53;;;;;;;3.83;2.70;;;21.00;92.90;;;;;;4938890;28;20587;-81
2022/08/23 03:54:19;;;;;;;4.00;3.27;;;21.00;93.10;;;;;;4954653;28;20953;-81
2022/08/23 03:56:53;;;;;;;3.93;2.57;;;21.00;93.10;;;;;;4954722;28;20684;-80
2022/08/23 03:59:20;;;;;;;5.07;2.60;;;21.00;93.30;;;;;;4954821;28;20633;-80
2022/08/23 04:01:47;;;;;;;4.40;3.07;;;21.00;93.50;;;;;;4938864;28;20606;-81
2022/08/23 04:04:13;;;;;;;3.90;2.50;;;21.00;93.70;;;;;;4938691;28;20575;-80
2022/08/23 04:06:51;;;;;;;3.60;3.10;;;21.00;93.90;;;;;;4955182;28;20586;-81
2022/08/23 04:09:17;;;;;;;3.63;2.70;;;20.90;93.80;;;;;;4958360;28;21143;-81
2022/08/23 04:11:44;;;;;;;5.70;3.10;;;20.90;94.00;;;;;;4954304;28;20593;-80
2022/08/23 04:14:11;;;;;;;6.10;3.00;;;20.90;94.30;;;;;;4955322;28;20575;-81
2022/08/23 04:16:39;;;;;;;4.70;2.70;;;20.90;94.20;;;;;;4955059;28;20987;-81
2022/08/23 04:19:13;;;;;;;7.40;3.80;;;20.80;94.40;;;;;;4955263;28;20623;-81
2022/08/23 04:21:50;;;;;;;5.33;2.87;;;20.80;94.50;;;;;;4954926;28;20614;-81
2022/08/23 04:24:17;;;;;;;5.47;2.60;;;20.80;94.50;;;;;;4956248;28;20574;-80
2022/08/23 04:26:44;;;;;;;4.23;2.90;;;20.80;94.50;;;;;;4956614;28;20567;-81
2022/08/23 04:29:13;;;;;;;3.70;2.00;;;20.80;94.50;;;;;;4958353;28;20657;-80
2022/08/23 04:31:39;;;;;;;3.50;2.63;;;20.80;94.60;;;;;;4942089;28;21144;-80
2022/08/23 04:34:07;;;;;;;4.67;2.43;;;20.80;94.70;;;;;;4942297;28;20574;-80
2022/08/23 04:36:37;;;;;;;5.47;2.80;;;20.80;94.80;;;;;;4958437;28;20678;-80
2022/08/23 04:39:04;;;;;;;5.07;2.97;;;20.80;94.90;;;;;;4958154;28;21462;-80
2022/08/23 04:44:16;;;;;;;5.03;3.20;;;20.80;95.00;;;;;;4978998;28;20646;-80
2022/08/23 04:46:43;;;;;;;6.67;3.60;;;20.80;95.10;;;;;;4958643;28;20581;-80
2022/08/23 04:49:10;;;;;;;2.57;2.37;;;20.80;95.30;;;;;;4957894;28;20605;-81
2022/08/23 04:51:37;;;;;;;3.70;2.50;;;20.80;95.40;;;;;;4958023;28;20610;-81
2022/08/23 04:54:04;;;;;;;2.97;2.37;;;20.90;95.50;;;;;;4958170;28;20674;-80
2022/08/23 04:56:37;;;;;;;5.70;2.33;;;20.90;95.50;;;;;;4957758;28;20586;-80
2022/08/23 04:59:04;;;;;;;3.87;2.73;;;20.90;95.70;;;;;;4957970;28;20629;-81
2022/08/23 05:01:32;;;;;;;4.63;2.80;;;20.90;95.70;;;;;;4957320;28;20580;-80
2022/08/23 05:03:59;;;;;;;5.47;2.77;;;20.90;95.90;;;;;;4958030;28;20567;-80
2022/08/23 05:06:27;;;;;;;4.97;3.20;;;20.90;95.90;;;;;;4957834;28;20661;-80
2022/08/23 05:08:53;;;;;;;3.83;2.33;;;20.90;96.00;;;;;;4974984;28;20563;-80
2022/08/23 05:11:19;;;;;;;4.20;2.80;;;21.00;96.00;;;;;;4957842;28;20567;-80
2022/08/23 05:13:47;;;;;;;4.50;3.20;;;21.00;96.00;;;;;;4957957;28;20975;-80
2022/08/23 05:16:13;;;;;;;5.10;3.07;;;21.00;96.00;;;;;;4957929;28;20586;-80
2022/08/23 05:18:48;;;;;;;4.57;3.10;;;21.00;96.00;;;;;;4943545;28;20642;-80
2022/08/23 05:21:19;;;;;;;4.77;3.40;;;21.00;96.00;;;;;;4943701;28;20567;-81
2022/08/23 05:23:46;;;;;;;3.30;3.00;;;21.00;96.20;;;;;;4959408;28;20228;-81
2022/08/23 05:26:17;;;;;;;3.63;3.27;;;21.10;96.10;;;;;;4959055;28;20618;-81
2022/08/23 05:28:46;;;;;;;4.37;3.70;;;21.00;96.00;;;;;;4960046;28;20575;-81
2022/08/23 05:31:20;;;;;;;6.17;2.90;;;21.00;96.10;;;;;;4977189;28;20574;-81
2022/08/23 05:33:50;;;;;;;5.00;3.40;;;21.10;96.20;;;;;;4963390;28;20594;-81
2022/08/23 05:36:23;;;;;;;6.43;3.73;;;21.10;96.20;;;;;;4966848;28;20648;-81
2022/08/23 05:38:51;;;;;;;8.40;3.63;;;21.10;96.20;;;;;;4979577;28;20735;-81
2022/08/23 05:41:17;;;;;;;5.00;3.33;;;21.10;96.30;;;;;;4963528;28;20564;-81
2022/08/23 05:43:44;;;;;;;7.90;3.33;;;21.10;96.40;;;;;;4943044;28;20697;-81
2022/08/23 05:46:14;;;;;;;5.53;3.40;;;21.10;96.40;;;;;;4957523;28;20571;-81
2022/08/23 05:48:47;;;;;;;3.63;2.90;;;21.10;96.50;;;;;;4954635;28;21007;-81
2022/08/23 05:51:21;;;;;;;5.47;3.20;;;21.20;96.60;;;;;;4952480;29;20582;-81
2022/08/23 05:53:49;;;;;;;6.97;3.80;;;21.30;96.70;;;;;;4974306;28;21267;-79
2022/08/23 05:56:31;;;;;;;4.27;3.03;;;21.40;96.90;;;;;;4958121;28;20927;-78
2022/08/23 05:59:02;;;;;;;5.63;3.80;;;21.40;96.90;;;;;;4957577;28;20626;-77
2022/08/23 06:01:29;;;;;;;6.00;3.70;;;21.50;97.00;;;;;;4954971;28;20631;-78
2022/08/23 06:04:00;;;;;;;6.23;3.37;;;21.60;97.00;;;;;;4956482;28;20595;-78
2022/08/23 06:06:27;;;;;;;6.20;3.33;;;21.70;97.00;;;;;;4956255;28;21163;-79
2022/08/23 06:08:53;;;;;;;6.80;3.50;;;21.90;97.00;;;;;;4956545;28;20682;-77
2022/08/23 06:11:22;;;;;;;7.73;4.00;;;22.00;97.00;;;;;;4973568;28;20674;-78
2022/08/23 06:13:54;;;;;;;4.43;2.90;;;22.20;97.00;;;;;;4973589;28;21163;-78
2022/08/23 06:16:26;;;;;;;7.13;3.30;;;22.30;96.90;;;;;;4956200;28;20593;-78
2022/08/23 06:18:54;;;;;;;4.77;3.03;;;22.50;96.70;;;;;;4940124;28;20627;-78
2022/08/23 06:21:41;;;;;;;8.20;3.63;;;22.70;96.70;;;;;;4933185;28;20643;-78
2022/08/23 06:24:07;;;;;;;5.77;4.07;;;23.00;96.30;;;;;;4956150;28;20583;-78
2022/08/23 06:26:43;;;;;;;6.90;3.70;;;23.20;96.00;;;;;;4955616;28;20716;-79
2022/08/23 06:29:13;;;;;;;5.10;3.57;;;23.50;95.20;;;;;;4939716;28;20598;-79
2022/08/23 06:31:46;;;;;;;6.13;3.13;;;23.80;95.50;;;;;;4955789;28;20626;-80
2022/08/23 06:34:22;;;;;;;4.03;3.20;;;24.30;95.60;;;;;;4956400;28;20609;-81
2022/08/23 06:37:20;;;;;;;4.30;2.37;;;25.30;95.60;;;;;;4956795;28;20567;-81
2022/08/23 06:40:04;;;;;;;6.00;2.50;;;26.60;95.50;;;;;;4955783;28;20841;-80
2022/08/23 06:42:48;;;;;;;5.80;2.90;;;27.80;93.60;;;;;;4973088;28;20669;-80
2022/08/23 06:45:20;;;;;;;6.50;1.40;;;28.80;92.60;;;;;;4956289;28;20567;-80
2022/08/23 06:47:49;;;;;;;4.10;2.17;;;29.80;91.50;;;;;;4939366;28;20655;-80
2022/08/23 06:50:15;;;;;;;4.60;2.20;;;30.60;86.70;;;;;;4955200;28;20571;-80
2022/08/23 06:52:59;;;;;;;6.73;1.80;;;31.30;82.20;;;;;;4966536;28;20632;-80
2022/08/23 06:55:40;;;;;;;4.17;1.80;;;31.90;79.40;;;;;;4952015;28;20609;-80
2022/08/23 06:58:16;;;;;;;3.47;1.57;;;32.60;76.10;;;;;;4955557;28;20733;-80
2022/08/23 07:01:16;;;;;;;2.47;1.50;;;33.30;71.50;;;;;;4938119;28;20723;-80
2022/08/23 07:04:08;;;;;;;5.07;2.27;;;33.50;63.00;;;;;;4956246;28;20912;-80
2022/08/23 07:07:03;;;;;;;2.37;1.40;;;33.60;59.10;;;;;;4959827;28;20608;-78
2022/08/23 07:09:30;;;;;;;4.30;1.83;;;33.60;58.60;;;;;;4973116;28;21146;-79
2022/08/23 07:11:58;;;;;;;5.67;1.90;;;33.60;56.20;;;;;;4956663;28;20664;-79
2022/08/23 07:14:24;;;;;;;2.70;1.80;;;33.60;56.20;;;;;;4973194;28;20693;-79
2022/08/23 07:16:53;;;;;;;2.90;1.53;;;33.70;55.90;;;;;;4941724;28;21038;-80
2022/08/23 07:19:22;;;;;;;10.53;1.30;;;34.00;55.80;;;;;;4973302;28;20634;-79
2022/08/23 07:21:48;;;;;;;2.50;1.60;;;34.40;54.90;;;;;;4973031;28;21043;-80
2022/08/23 07:24:15;;;;;;;6.47;1.67;;;34.80;54.30;;;;;;4972866;28;20582;-80
2022/08/23 07:26:44;;;;;;;4.20;1.77;;;35.10;53.30;;;;;;4938195;28;20586;-79
2022/08/23 07:29:11;;;;;;;4.33;1.50;;;35.60;52.70;;;;;;4960648;28;20581;-79
2022/08/23 07:31:42;;;;;;;2.40;1.50;;;35.90;51.80;;;;;;4956519;28;20591;-79
2022/08/23 07:34:09;;;;;;;2.80;1.77;;;36.50;50.90;;;;;;4955616;28;20585;-79
2022/08/23 07:36:40;;;;;;;3.43;2.10;;;37.00;50.10;;;;;;4955445;28;20641;-79
2022/08/23 07:39:09;;;;;;;3.47;1.63;;;37.40;48.60;;;;;;4972816;28;20637;-77
2022/08/23 07:41:37;;;;;;;2.80;1.10;;;37.70;48.30;;;;;;4955083;28;20634;-78
2022/08/23 07:44:07;;;;;;;5.30;1.60;;;38.00;47.50;;;;;;4955571;28;20583;-80
2022/08/23 07:46:35;;;;;;;2.10;1.20;;;38.20;46.10;;;;;;4947110;29;20588;-79
2022/08/23 07:49:03;;;;;;;5.90;1.83;;;38.50;44.80;;;;;;4948167;28;20594;-79
2022/08/23 07:51:40;;;;;;;4.23;1.67;;;38.50;44.70;;;;;;4955110;28;20676;-79
2022/08/23 07:54:08;;;;;;;3.53;1.70;;;38.80;44.20;;;;;;4955166;28;20948;-79
2022/08/23 07:56:42;;;;;;;3.93;1.60;;;38.90;42.40;;;;;;4955126;28;21163;-79
2022/08/23 07:59:17;;;;;;;3.77;1.70;;;38.90;41.80;;;;;;4938878;28;20693;-79
2022/08/23 08:02:06;;;;;;;5.30;1.63;;;39.00;41.90;;;;;;4949512;28;21045;-77
2022/08/23 08:04:33;;;;;;;2.93;1.40;;;39.30;41.60;;;;;;4942794;28;20679;-78
2022/08/23 08:07:00;;;;;;;3.00;1.63;;;39.30;41.10;;;;;;4958928;28;20602;-78
2022/08/23 08:09:27;;;;;;;5.80;1.63;;;39.50;40.80;;;;;;4958286;28;20602;-78
2022/08/23 08:11:54;;;;;;;2.80;1.60;;;39.70;40.60;;;;;;4958418;28;20617;-78
2022/08/23 08:14:25;;;;;;;3.23;1.60;;;40.20;40.50;;;;;;4958443;28;20633;-78
2022/08/23 08:16:56;;;;;;;3.60;1.90;;;40.50;39.00;;;;;;4941792;28;20979;-78
2022/08/23 08:19:43;;;;;;;3.30;1.40;;;40.80;38.80;;;;;;4973904;28;20651;-78
2022/08/23 08:22:27;;;;;;;4.00;1.33;;;41.10;38.50;;;;;;4969668;28;21167;-77
2022/08/23 08:25:25;;;;;;;5.03;1.80;;;41.50;38.70;;;;;;4966417;28;20587;-78
2022/08/23 08:27:52;;;;;;;4.30;1.33;;;42.00;37.90;;;;;;4958947;28;20673;-78
2022/08/23 08:30:18;;;;;;;3.20;1.77;;;42.00;37.30;;;;;;4958914;28;20618;-77
2022/08/23 08:32:47;;;;;;;2.10;1.50;;;42.20;35.70;;;;;;4975193;28;20615;-78
2022/08/23 08:35:13;;;;;;;3.57;1.63;;;42.10;35.60;;;;;;4958223;28;20578;-77
2022/08/23 08:37:39;;;;;;;4.83;1.87;;;42.10;35.40;;;;;;4942249;28;20194;-77
2022/08/23 08:40:06;;;;;;;3.30;1.70;;;42.30;35.10;;;;;;4975272;28;21043;-76
2022/08/23 08:43:01;;;;;;;3.93;1.60;;;42.10;34.70;;;;;;4975348;28;20203;-77
2022/08/23 08:45:37;;;;;;;5.93;1.63;;;42.30;34.80;;;;;;4957413;28;20693;-77
2022/08/23 08:48:08;;;;;;;3.10;1.43;;;42.60;34.70;;;;;;4958084;28;20756;-76
2022/08/23 08:50:48;;;;;;;3.53;1.37;;;43.00;34.60;;;;;;4957995;28;20574;-76
2022/08/23 08:53:35;;;;;;;4.90;1.50;;;43.10;33.80;;;;;;4958057;28;20657;-77
2022/08/23 08:56:33;;;;;;;3.70;1.30;;;43.30;33.70;;;;;;4957986;28;20606;-77
2022/08/23 08:59:39;;;;;;;2.63;1.20;;;43.70;33.40;;;;;;4961894;28;20658;-78
2022/08/23 09:02:12;;;;;;;5.57;1.87;;;43.80;33.00;;;;;;4961266;28;20994;-77
2022/08/23 09:04:38;;;;;;;6.50;1.90;;;43.60;32.20;;;;;;4958050;28;20578;-77
2022/08/23 09:07:43;;;;;;;2.90;1.70;;;43.70;32.10;;;;;;4958648;28;20983;-77
2022/08/23 09:10:18;;;;;;;2.87;1.80;;;43.70;32.30;;;;;;4945839;28;20597;-77
2022/08/23 09:13:06;;;;;;;3.23;1.73;;;43.60;31.40;;;;;;4950182;28;21227;-76
2022/08/23 09:16:01;;;;;;;6.33;1.47;;;43.50;31.30;;;;;;4938770;29;20590;-77
2022/08/23 09:18:32;;;;;;;4.67;2.33;;;43.40;31.20;;;;;;4922854;29;20630;-77
2022/08/23 09:21:00;;;;;;;4.10;1.93;;;43.50;31.60;;;;;;4938534;29;20580;-78
2022/08/23 09:23:35;;;;;;;3.43;1.50;;;43.70;31.40;;;;;;4938062;29;20610;-77
2022/08/23 09:26:17;;;;;;;3.33;1.50;;;43.50;31.30;;;;;;4938301;29;20583;-76
2022/08/23 09:28:44;;;;;;;5.50;1.50;;;43.70;31.30;;;;;;4922315;29;20600;-78
2022/08/23 09:31:11;;;;;;;2.90;1.70;;;44.00;31.50;;;;;;4922017;29;20584;-79
2022/08/23 09:33:40;;;;;;;3.93;1.77;;;44.20;31.50;;;;;;4952938;28;20737;-79
2022/08/23 09:36:30;;;;;;;3.80;1.27;;;44.70;31.10;;;;;;4949410;28;20610;-77
2022/08/23 09:39:21;;;;;;;5.53;1.70;;;45.10;31.50;;;;;;4947479;28;20681;-79
2022/08/23 09:41:49;;;;;;;3.40;1.80;;;45.40;30.80;;;;;;4957004;28;20630;-78
2022/08/23 09:44:32;;;;;;;3.37;1.60;;;45.70;30.60;;;;;;4974237;28;20686;-78
2022/08/23 09:47:06;;;;;;;6.43;1.93;;;46.10;30.50;;;;;;4957118;28;20570;-78
2022/08/23 09:49:33;;;;;;;3.47;2.30;;;46.30;29.70;;;;;;4924747;28;20590;-77
2022/08/23 09:52:18;;;;;;;3.97;1.83;;;46.30;29.00;;;;;;4956673;28;20615;-78
2022/08/23 09:54:56;;;;;;;4.90;1.50;;;46.40;29.50;;;;;;4956292;28;21170;-76
2022/08/23 09:57:27;;;;;;;4.13;1.57;;;46.50;29.50;;;;;;4956839;28;20618;-79
2022/08/23 09:59:55;;;;;;;4.70;2.00;;;46.80;29.50;;;;;;4940500;28;20697;-76
2022/08/23 10:02:31;;;;;;;4.07;1.60;;;46.80;28.90;;;;;;4956916;28;20599;-78
2022/08/23 10:05:26;;;;;;;2.60;1.33;;;47.00;29.00;;;;;;4959061;28;20686;-76
2022/08/23 10:08:01;;;;;;;2.93;1.57;;;47.10;28.40;;;;;;4940607;28;20591;-76
2022/08/23 10:10:42;;;;;;;3.00;1.53;;;47.20;28.30;;;;;;4956157;28;20920;-76
2022/08/23 10:13:09;;;;;;;2.50;1.30;;;47.40;28.30;;;;;;4955251;28;20649;-76
2022/08/23 10:15:53;;;;;;;3.00;1.40;;;47.40;28.20;;;;;;4958230;28;20718;-76
2022/08/23 10:18:34;;;;;;;2.53;1.43;;;47.60;27.70;;;;;;4956378;28;21149;-76
2022/08/23 10:21:29;;;;;;;2.90;1.63;;;47.60;27.70;;;;;;4973336;28;20575;-75
2022/08/23 10:24:01;;;;;;;2.90;1.27;;;47.60;27.90;;;;;;4939657;28;21065;-76
2022/08/23 10:26:31;;;;;;;2.90;1.53;;;47.60;27.40;;;;;;4949620;29;20606;-75
2022/08/23 10:32:12;;;;;;;3.07;1.40;;;47.60;27.40;;;;;;4972814;28;21030;-77
2022/08/23 10:35:28;;;;;;;6.20;1.40;;;47.70;27.10;;;;;;4955397;28;20682;-76
2022/08/23 10:38:28;;;;;;;2.90;1.70;;;47.70;27.40;;;;;;4945904;28;20978;-76
2022/08/23 10:41:21;;;;;;;6.23;1.73;;;47.20;26.80;;;;;;4955369;28;20591;-77
2022/08/23 10:44:24;;;;;;;3.17;1.30;;;47.00;26.70;;;;;;4956170;28;20611;-76
2022/08/23 10:46:59;;;;;;;5.50;2.67;;;46.60;26.80;;;;;;4912049;29;20596;-77
2022/08/23 10:49:27;;;;;;;2.53;1.50;;;46.30;26.70;;;;;;4936476;29;20572;-77
2022/08/23 10:51:55;;;;;;;2.33;1.40;;;46.00;26.90;;;;;;4937609;29;20616;-77
2022/08/23 10:54:58;;;;;;;2.07;1.10;;;45.70;26.80;;;;;;4936831;29;20600;-77
2022/08/23 10:57:36;;;;;;;2.03;1.13;;;45.50;27.00;;;;;;4932653;29;20617;-77
2022/08/23 11:00:10;;;;;;;2.47;1.50;;;45.20;26.80;;;;;;4936234;29;20703;-77
2022/08/23 11:02:52;;;;;;;2.63;1.73;;;45.10;26.80;;;;;;4920436;29;20623;-77
2022/08/23 11:05:34;;;;;;;3.77;1.40;;;44.90;27.00;;;;;;4931735;28;20606;-77
2022/08/23 11:08:31;;;;;;;4.27;1.83;;;44.80;27.00;;;;;;4956159;28;20591;-78
2022/08/23 11:10:58;;;;;;;3.83;1.77;;;44.60;27.00;;;;;;4939202;28;20611;-77
2022/08/23 11:13:33;;;;;;;3.77;1.60;;;44.50;27.10;;;;;;4955383;28;20642;-77
2022/08/23 11:16:22;;;;;;;3.30;1.83;;;44.40;27.20;;;;;;4953736;28;20623;-78
2022/08/23 11:18:50;;;;;;;2.90;1.50;;;44.40;27.10;;;;;;4939928;28;20657;-77
2022/08/23 11:21:27;;;;;;;2.30;1.07;;;44.20;26.70;;;;;;4956067;28;20575;-77
2022/08/23 11:23:58;;;;;;;2.27;1.10;;;44.00;26.60;;;;;;4955831;28;20575;-79
2022/08/23 11:26:25;;;;;;;3.33;1.00;;;43.80;26.60;;;;;;4940681;28;20586;-76
2022/08/23 11:29:23;;;;;;;3.00;1.30;;;43.60;26.80;;;;;;4956295;28;20578;-77
2022/08/23 11:32:18;;;;;;;2.07;0.90;;;43.40;26.80;;;;;;4971394;28;20290;-76
2022/08/23 11:35:07;;;;;;;4.23;1.27;;;43.20;26.70;;;;;;4956324;28;20611;-77
2022/08/23 11:38:07;;;;;;;3.20;1.00;;;42.90;27.40;;;;;;4959958;28;20575;-77
2022/08/23 11:40:50;;;;;;;2.77;1.37;;;42.80;27.10;;;;;;4931322;28;20963;-76
2022/08/23 11:43:30;;;;;;;4.00;1.80;;;42.70;27.40;;;;;;4944083;28;20754;-77
2022/08/23 11:46:24;;;;;;;2.13;0.97;;;42.70;27.10;;;;;;4960122;28;20940;-77
2022/08/23 11:49:00;;;;;;;2.50;1.13;;;42.40;26.90;;;;;;4960596;28;20594;-77
2022/08/23 11:51:51;;;;;;;3.30;1.50;;;42.30;27.40;;;;;;4976415;28;21039;-78
2022/08/23 11:54:48;;;;;;;3.37;1.20;;;42.10;27.60;;;;;;4960380;28;20932;-76
2022/08/23 11:57:27;;;;;;;4.03;1.27;;;42.10;27.80;;;;;;4977740;28;20574;-76
2022/08/23 11:59:59;;;;;;;4.03;1.33;;;42.10;27.70;;;;;;4976527;28;20637;-75
2022/08/23 12:02:36;;;;;;;2.13;0.90;;;42.00;27.60;;;;;;4973735;28;20626;-76
2022/08/23 12:05:22;;;;;;;3.20;1.63;;;42.00;27.80;;;;;;4976204;28;20669;-77
2022/08/23 12:07:53;;;;;;;2.60;1.00;;;41.80;27.90;;;;;;4976851;28;20567;-76
2022/08/23 12:10:42;;;;;;;3.00;1.10;;;41.80;27.80;;;;;;4976039;28;20615;-77
2022/08/23 12:13:17;;;;;;;3.17;1.20;;;41.50;27.30;;;;;;4959473;28;20701;-76
2022/08/23 12:16:14;;;;;;;3.13;1.20;;;41.20;27.20;;;;;;4977432;28;20613;-77
2022/08/23 12:18:49;;;;;;;2.43;1.33;;;40.80;27.30;;;;;;4974440;28;20733;-76
2022/08/23 12:21:31;;;;;;;2.57;1.00;;;40.20;27.80;;;;;;4970653;28;20574;-78
2022/08/23 12:24:12;;;;;;;2.50;1.00;;;39.60;27.70;;;;;;4975689;28;20603;-77
2022/08/23 12:26:43;;;;;;;3.03;1.20;;;39.30;27.90;;;;;;4975062;28;20697;-77
2022/08/23 12:29:36;;;;;;;2.13;1.23;;;39.00;28.20;;;;;;4975364;28;20587;-76
2022/08/23 12:32:16;;;;;;;2.27;1.43;;;38.70;28.40;;;;;;4957261;28;20623;-76
2022/08/23 12:35:03;;;;;;;5.53;2.13;;;38.20;28.40;;;;;;4942107;28;20996;-76
2022/08/23 12:37:58;;;;;;;2.60;1.57;;;37.70;28.70;;;;;;4957569;28;20594;-76
2022/08/23 12:40:31;;;;;;;4.80;1.20;;;37.30;29.10;;;;;;4972820;28;20685;-76
2022/08/23 12:43:29;;;;;;;2.00;0.97;;;37.10;29.30;;;;;;4974834;28;21028;-76
2022/08/23 12:46:01;;;;;;;4.70;1.20;;;36.90;29.50;;;;;;4910421;28;20673;-77
2022/08/23 12:48:32;;;;;;;2.80;1.13;;;36.80;29.70;;;;;;4974579;28;21164;-76
2022/08/23 12:51:11;;;;;;;4.33;2.10;;;36.60;30.30;;;;;;4957785;28;20937;-77
2022/08/23 12:53:43;;;;;;;4.53;1.57;;;36.20;30.70;;;;;;4975117;28;21171;-76
2022/08/23 12:56:19;;;;;;;6.07;2.00;;;35.80;30.00;;;;;;4975211;28;20586;-76
2022/08/23 12:58:52;;;;;;;3.33;1.70;;;35.30;30.60;;;;;;4956955;28;20624;-78
2022/08/23 13:01:29;;;;;;;3.70;1.80;;;35.10;30.80;;;;;;4957238;28;20591;-76
2022/08/23 13:04:15;;;;;;;4.43;1.67;;;34.80;31.30;;;;;;4971960;28;20692;-76
2022/08/23 13:06:43;;;;;;;2.83;1.20;;;34.50;31.60;;;;;;4974547;28;20582;-77
2022/08/23 13:09:21;;;;;;;2.63;1.17;;;34.40;31.70;;;;;;4956803;28;20608;-76
2022/08/23 13:11:47;;;;;;;3.30;1.50;;;34.20;32.40;;;;;;4955990;28;20988;-76
2022/08/23 13:14:34;;;;;;;3.80;1.57;;;34.20;32.10;;;;;;4957577;28;20601;-77
2022/08/23 13:17:30;;;;;;;5.33;1.63;;;34.20;32.40;;;;;;4975585;28;20591;-76
2022/08/23 13:20:05;;;;;;;3.37;1.50;;;34.20;32.80;;;;;;4974683;28;20624;-76
2022/08/23 13:22:32;;;;;;;4.07;1.63;;;34.30;32.90;;;;;;4956977;28;20703;-76
2022/08/23 13:25:08;;;;;;;3.87;1.10;;;34.30;33.00;;;;;;4974659;28;20579;-76
2022/08/23 13:27:48;;;;;;;3.90;1.50;;;34.40;32.90;;;;;;4957563;28;20712;-76
2022/08/23 13:30:18;;;;;;;3.50;1.63;;;34.40;32.90;;;;;;4974172;28;20573;-76
2022/08/23 13:33:11;;;;;;;10.70;2.07;;;34.30;33.10;;;;;;4974352;28;20629;-76
2022/08/23 13:35:38;;;;;;;9.60;1.80;;;34.20;33.30;;;;;;4957181;28;21002;-76